Time;durP1;ratioP1;P1;durP2;ratioP2;P2;SDS_P1;SDS_P2;PMS_P1;PMS_P2;Temp;Humidity;BMP_temperature;BMP_pressure;BME280_temperature;BME280_humidity;BME280_pressure;Samples;Min_cycle;Max_cycle;Signal;HPM_P1;HPM_P2
2022/07/30 00:00:11;;;;;;;6.10;1.70;;;;;;;;;;105502;1303;24714;-24
2022/07/30 00:02:40;;;;;;;4.40;2.80;;;;;;;;;;105520;1303;22518;-25
2022/07/30 00:05:09;;;;;;;2.30;2.10;;;;;;;;;;105515;1303;25252;-24
2022/07/30 00:07:38;;;;;;;5.30;2.20;;;;;;;;;;105574;1302;22559;-30
2022/07/30 00:10:07;;;;;;;2.10;1.70;;;;;;;;;;105554;1303;25277;-30
2022/07/30 00:12:36;;;;;;;3.60;1.40;;;;;;;;;;105640;1303;25242;-25
2022/07/30 00:15:05;;;;;;;2.80;2.20;;;;;;;;;;105605;1303;24724;-29
2022/07/30 00:17:34;;;;;;;5.80;1.90;;;;;;;;;;105534;1302;22579;-29
2022/07/30 00:20:03;;;;;;;2.20;1.40;;;;;;;;;;105657;1295;22536;-31
2022/07/30 00:22:32;;;;;;;3.50;1.50;;;;;;;;;;105614;1303;25277;-31
2022/07/30 00:25:01;;;;;;;4.60;1.90;;;;;;;;;;105642;1296;22537;-26
2022/07/30 00:27:33;;;;;;;12.20;1.50;;;;;;;;;;105570;1303;25277;-24
2022/07/30 00:30:02;;;;;;;2.50;1.80;;;;;;;;;;105581;1302;24625;-24
2022/07/30 00:32:31;;;;;;;6.20;1.70;;;;;;;;;;105567;1301;22523;-29
2022/07/30 00:35:00;;;;;;;1.10;1.00;;;;;;;;;;105497;1303;22590;-25
2022/07/30 00:37:29;;;;;;;3.30;1.20;;;;;;;;;;105511;1303;25219;-25
2022/07/30 00:39:57;;;;;;;2.70;1.20;;;;;;;;;;105553;1301;22987;-28
2022/07/30 00:42:30;;;;;;;5.10;1.10;;;;;;;;;;105544;1303;22517;-28
2022/07/30 00:44:59;;;;;;;1.80;0.90;;;;;;;;;;105603;1296;22504;-24
2022/07/30 00:47:27;;;;;;;2.90;1.60;;;;;;;;;;105606;1303;25200;-30
2022/07/30 00:49:56;;;;;;;2.70;1.70;;;;;;;;;;105590;1302;24504;-25
2022/07/30 00:52:25;;;;;;;1.30;0.90;;;;;;;;;;105523;1303;22501;-26
2022/07/30 00:54:54;;;;;;;2.20;1.10;;;;;;;;;;105609;1302;26462;-25
2022/07/30 00:57:23;;;;;;;8.50;1.40;;;;;;;;;;105542;1303;22554;-25
2022/07/30 00:59:52;;;;;;;11.70;1.30;;;;;;;;;;105637;1302;25225;-24
2022/07/30 01:02:21;;;;;;;2.50;1.40;;;;;;;;;;105540;1303;24484;-27
2022/07/30 01:04:50;;;;;;;9.20;2.40;;;;;;;;;;105567;1302;22521;-28
2022/07/30 01:07:18;;;;;;;2.30;1.40;;;;;;;;;;105622;1303;25197;-30
2022/07/30 01:09:47;;;;;;;2.10;1.50;;;;;;;;;;105559;1303;25197;-24
2022/07/30 01:12:18;;;;;;;1.80;1.20;;;;;;;;;;105618;1303;25381;-26
2022/07/30 01:14:47;;;;;;;3.70;1.30;;;;;;;;;;105594;1302;22530;-28
2022/07/30 01:17:16;;;;;;;2.20;1.20;;;;;;;;;;105529;1303;22807;-28
2022/07/30 01:22:20;;;;;;;3.80;1.50;;;;;;;;;;105561;1295;24413;-28
2022/07/30 01:25:08;;;;;;;4.00;2.00;;;;;;;;;;105574;1300;24427;-26
2022/07/30 01:27:40;;;;;;;1.60;1.40;;;;;;;;;;105536;1302;25340;-26
2022/07/30 01:30:09;;;;;;;3.80;1.80;;;;;;;;;;105516;1296;22517;-28
2022/07/30 01:32:39;;;;;;;1.80;1.00;;;;;;;;;;105561;1303;25263;-26
2022/07/30 01:35:08;;;;;;;2.60;1.80;;;;;;;;;;105557;1303;22534;-23
2022/07/30 01:37:37;;;;;;;2.40;1.60;;;;;;;;;;105569;1303;25202;-27
2022/07/30 01:40:06;;;;;;;13.10;1.50;;;;;;;;;;105611;1303;25343;-24
2022/07/30 01:42:35;;;;;;;2.50;1.60;;;;;;;;;;105663;1303;25197;-26
2022/07/30 01:45:04;;;;;;;4.10;1.60;;;;;;;;;;105512;1302;22517;-24
2022/07/30 01:47:33;;;;;;;2.70;1.10;;;;;;;;;;105585;1303;22599;-24
2022/07/30 01:50:03;;;;;;;1.90;0.90;;;;;;;;;;105625;1299;22533;-26
2022/07/30 01:52:32;;;;;;;2.50;1.80;;;;;;;;;;105609;1296;25264;-28
2022/07/30 01:55:00;;;;;;;3.40;1.40;;;;;;;;;;105562;1302;25169;-28
2022/07/30 01:57:29;;;;;;;3.10;1.40;;;;;;;;;;105586;1303;25234;-30
2022/07/30 02:00:00;;;;;;;3.00;1.00;;;;;;;;;;105513;1296;25226;-29
2022/07/30 02:02:29;;;;;;;1.80;1.00;;;;;;;;;;105464;1299;25225;-24
2022/07/30 02:04:58;;;;;;;2.70;0.90;;;;;;;;;;105512;1296;24279;-29
2022/07/30 02:07:29;;;;;;;2.00;1.10;;;;;;;;;;105621;1296;22510;-28
2022/07/30 02:10:07;;;;;;;0.80;0.80;;;;;;;;;;105552;1299;25331;-28
2022/07/30 02:12:36;;;;;;;1.90;1.30;;;;;;;;;;105630;1303;22538;-25
2022/07/30 02:15:09;;;;;;;1.40;1.00;;;;;;;;;;105629;1303;25222;-23
2022/07/30 02:17:40;;;;;;;1.60;0.80;;;;;;;;;;105546;1299;25224;-26
2022/07/30 02:20:10;;;;;;;1.60;1.20;;;;;;;;;;105547;1299;24320;-28
2022/07/30 02:22:40;;;;;;;7.80;1.30;;;;;;;;;;105542;1299;22514;-28
2022/07/30 02:25:09;;;;;;;2.00;0.70;;;;;;;;;;105623;1303;22548;-26
2022/07/30 02:27:38;;;;;;;2.60;1.30;;;;;;;;;;105562;1303;25283;-25
2022/07/30 02:30:07;;;;;;;1.50;1.20;;;;;;;;;;105637;1303;25223;-24
2022/07/30 02:32:37;;;;;;;3.60;1.20;;;;;;;;;;105536;1303;22555;-28
2022/07/30 02:35:09;;;;;;;2.90;1.20;;;;;;;;;;105569;1303;25216;-28
2022/07/30 02:37:38;;;;;;;1.30;0.60;;;;;;;;;;105649;1298;22505;-28
2022/07/30 02:40:07;;;;;;;1.60;1.10;;;;;;;;;;105568;1303;23069;-30
2022/07/30 02:42:36;;;;;;;1.20;1.00;;;;;;;;;;105517;1296;22455;-24
2022/07/30 02:45:05;;;;;;;2.10;0.90;;;;;;;;;;105646;1296;25230;-26
2022/07/30 02:47:34;;;;;;;1.00;0.80;;;;;;;;;;105546;1303;24351;-26
2022/07/30 02:50:04;;;;;;;2.20;1.20;;;;;;;;;;105561;1296;22513;-24
2022/07/30 02:52:33;;;;;;;2.20;1.30;;;;;;;;;;105533;1303;22735;-24
2022/07/30 02:55:02;;;;;;;5.00;1.20;;;;;;;;;;105594;1302;25187;-24
2022/07/30 02:57:31;;;;;;;2.40;1.30;;;;;;;;;;105548;1303;25212;-28
2022/07/30 03:00:00;;;;;;;1.10;0.80;;;;;;;;;;105626;1296;22517;-28
2022/07/30 03:02:29;;;;;;;3.10;1.10;;;;;;;;;;105542;1303;24474;-28
2022/07/30 03:04:59;;;;;;;1.40;0.60;;;;;;;;;;105600;1299;25213;-26
2022/07/30 03:07:27;;;;;;;3.00;0.70;;;;;;;;;;105552;1303;25264;-28
2022/07/30 03:09:56;;;;;;;0.70;0.50;;;;;;;;;;105609;1303;22514;-28
2022/07/30 03:12:25;;;;;;;1.00;0.70;;;;;;;;;;105532;1303;25375;-27
2022/07/30 03:14:54;;;;;;;2.10;0.90;;;;;;;;;;105643;1296;25237;-28
2022/07/30 03:17:24;;;;;;;3.80;1.10;;;;;;;;;;105643;1303;25206;-23
2022/07/30 03:19:54;;;;;;;5.60;1.00;;;;;;;;;;105522;1298;25347;-28
2022/07/30 03:22:23;;;;;;;1.30;0.60;;;;;;;;;;105508;1303;22548;-28
2022/07/30 03:24:51;;;;;;;1.60;0.70;;;;;;;;;;105569;1303;22513;-25
2022/07/30 03:27:20;;;;;;;2.50;1.10;;;;;;;;;;105658;1303;22541;-25
2022/07/30 03:29:49;;;;;;;1.40;0.60;;;;;;;;;;105526;1296;25237;-24
2022/07/30 03:32:18;;;;;;;4.00;1.10;;;;;;;;;;105522;1303;24813;-23
2022/07/30 03:34:47;;;;;;;3.00;0.90;;;;;;;;;;105565;1303;25238;-28
2022/07/30 03:37:16;;;;;;;1.70;0.70;;;;;;;;;;105549;1303;22546;-27
2022/07/30 03:39:46;;;;;;;2.20;0.50;;;;;;;;;;105583;1303;25386;-28
2022/07/30 03:42:15;;;;;;;3.00;0.70;;;;;;;;;;105539;1303;25235;-30
2022/07/30 03:44:44;;;;;;;0.80;0.70;;;;;;;;;;105660;1295;25225;-25
2022/07/30 03:47:14;;;;;;;2.60;0.60;;;;;;;;;;105413;1303;25161;-24
2022/07/30 03:49:43;;;;;;;2.50;0.80;;;;;;;;;;105557;1299;22529;-28
2022/07/30 03:52:12;;;;;;;1.50;0.60;;;;;;;;;;105573;1303;22509;-24
2022/07/30 03:54:41;;;;;;;7.10;1.20;;;;;;;;;;105501;1296;25226;-28
2022/07/30 03:57:09;;;;;;;9.60;1.30;;;;;;;;;;105648;1303;25197;-26
2022/07/30 03:59:39;;;;;;;1.70;1.20;;;;;;;;;;105622;1295;22513;-24
2022/07/30 04:02:07;;;;;;;2.30;0.80;;;;;;;;;;105666;1303;22606;-25
2022/07/30 04:04:40;;;;;;;6.20;0.90;;;;;;;;;;105580;1296;22539;-29
2022/07/30 04:07:09;;;;;;;0.90;0.60;;;;;;;;;;105604;1296;22517;-24
2022/07/30 04:09:37;;;;;;;0.90;0.60;;;;;;;;;;105570;1296;22985;-30
2022/07/30 04:12:06;;;;;;;2.20;0.90;;;;;;;;;;105550;1296;22519;-30
2022/07/30 04:14:39;;;;;;;7.80;1.00;;;;;;;;;;105475;1298;25273;-25
2022/07/30 04:17:12;;;;;;;1.60;0.80;;;;;;;;;;105541;1295;22528;-25
2022/07/30 04:19:41;;;;;;;3.50;2.20;;;;;;;;;;105624;1296;22846;-30
2022/07/30 04:22:11;;;;;;;1.00;0.60;;;;;;;;;;105664;1298;22527;-30
2022/07/30 04:24:40;;;;;;;2.60;0.70;;;;;;;;;;105659;1299;25202;-24
2022/07/30 04:27:08;;;;;;;3.90;0.90;;;;;;;;;;105397;1298;25238;-24
2022/07/30 04:29:37;;;;;;;0.70;0.50;;;;;;;;;;105581;1296;25264;-30
2022/07/30 04:32:06;;;;;;;1.80;0.90;;;;;;;;;;105596;1299;22530;-28
2022/07/30 04:34:35;;;;;;;2.30;0.90;;;;;;;;;;105608;1299;24261;-28
2022/07/30 04:37:04;;;;;;;2.40;0.60;;;;;;;;;;105562;1303;24569;-25
2022/07/30 04:39:33;;;;;;;5.30;0.80;;;;;;;;;;105531;1299;25239;-28
2022/07/30 04:42:02;;;;;;;3.30;0.70;;;;;;;;;;105372;1299;25085;-26
2022/07/30 04:44:31;;;;;;;5.20;1.20;;;;;;;;;;105549;1296;22505;-28
2022/07/30 04:46:59;;;;;;;0.90;0.60;;;;;;;;;;105615;1299;22523;-30
2022/07/30 04:49:28;;;;;;;7.30;1.00;;;;;;;;;;105496;1299;22517;-29
2022/07/30 04:51:57;;;;;;;1.50;0.90;;;;;;;;;;105562;1303;24573;-25
2022/07/30 04:54:26;;;;;;;1.50;0.70;;;;;;;;;;105645;1303;24859;-24
2022/07/30 04:56:55;;;;;;;1.30;1.00;;;;;;;;;;105687;1303;25207;-24
2022/07/30 04:59:24;;;;;;;2.20;0.90;;;;;;;;;;105604;1296;22523;-24
2022/07/30 05:01:53;;;;;;;1.90;0.90;;;;;;;;;;105556;1296;25298;-29
2022/07/30 05:04:22;;;;;;;1.60;1.20;;;;;;;;;;105572;1296;22509;-24
2022/07/30 05:06:51;;;;;;;8.80;1.10;;;;;;;;;;105606;1298;25238;-25
2022/07/30 05:09:19;;;;;;;1.60;0.80;;;;;;;;;;105575;1296;24468;-28
2022/07/30 05:11:50;;;;;;;4.90;1.50;;;;;;;;;;105619;1303;25197;-31
2022/07/30 05:14:19;;;;;;;19.30;1.40;;;;;;;;;;105552;1299;25305;-28
2022/07/30 05:16:48;;;;;;;26.20;2.40;;;;;;;;;;105647;1304;25327;-28
2022/07/30 05:19:17;;;;;;;3.40;1.30;;;;;;;;;;105588;1296;26585;-24
2022/07/30 05:21:46;;;;;;;1.80;1.00;;;;;;;;;;105624;1303;22510;-28
2022/07/30 05:24:15;;;;;;;13.70;1.40;;;;;;;;;;105510;1299;24677;-27
2022/07/30 05:26:44;;;;;;;1.30;0.90;;;;;;;;;;105609;1303;24899;-31
2022/07/30 05:29:13;;;;;;;7.50;1.50;;;;;;;;;;105617;1296;24804;-31
2022/07/30 05:31:42;;;;;;;1.30;1.10;;;;;;;;;;105613;1303;25363;-25
2022/07/30 05:34:10;;;;;;;1.70;1.10;;;;;;;;;;105616;1296;22531;-25
2022/07/30 05:36:39;;;;;;;5.20;1.10;;;;;;;;;;105509;1303;25284;-28
2022/07/30 05:39:08;;;;;;;1.40;1.00;;;;;;;;;;105622;1299;22613;-24
2022/07/30 05:41:37;;;;;;;1.00;0.90;;;;;;;;;;105625;1303;25481;-30
2022/07/30 05:44:06;;;;;;;3.90;1.00;;;;;;;;;;105325;1304;25346;-24
2022/07/30 05:46:35;;;;;;;3.80;1.30;;;;;;;;;;105616;1303;25338;-28
2022/07/30 05:49:05;;;;;;;1.80;1.20;;;;;;;;;;105522;1296;25197;-28
2022/07/30 05:51:34;;;;;;;1.10;0.80;;;;;;;;;;105297;1296;400412;-29
2022/07/30 05:54:03;;;;;;;4.70;1.20;;;;;;;;;;105610;1303;22500;-31
2022/07/30 05:56:32;;;;;;;8.00;1.00;;;;;;;;;;105604;1303;25244;-28
2022/07/30 05:59:01;;;;;;;2.20;1.10;;;;;;;;;;105578;1296;22526;-31
2022/07/30 06:01:29;;;;;;;10.10;1.00;;;;;;;;;;105661;1299;25277;-28
2022/07/30 06:03:58;;;;;;;1.40;0.80;;;;;;;;;;105582;1295;22613;-29
2022/07/30 06:06:27;;;;;;;3.60;1.10;;;;;;;;;;105589;1296;25285;-28
2022/07/30 06:08:56;;;;;;;8.20;1.60;;;;;;;;;;105608;1296;25226;-28
2022/07/30 06:11:25;;;;;;;5.10;1.50;;;;;;;;;;105562;1303;25259;-30
2022/07/30 06:13:54;;;;;;;1.80;1.10;;;;;;;;;;105619;1296;25226;-26
2022/07/30 06:16:23;;;;;;;1.90;1.20;;;;;;;;;;105558;1303;25229;-26
2022/07/30 06:18:52;;;;;;;3.10;1.40;;;;;;;;;;105446;1299;22513;-25
2022/07/30 06:21:21;;;;;;;3.80;1.50;;;;;;;;;;105597;1303;24690;-29
2022/07/30 06:23:49;;;;;;;1.20;1.00;;;;;;;;;;105581;1299;26444;-25
2022/07/30 06:26:18;;;;;;;1.00;0.90;;;;;;;;;;105585;1303;25199;-30
2022/07/30 06:28:47;;;;;;;3.70;1.20;;;;;;;;;;105579;1303;25337;-30
2022/07/30 06:31:16;;;;;;;2.90;1.20;;;;;;;;;;105628;1303;25237;-26
2022/07/30 06:33:45;;;;;;;1.90;1.10;;;;;;;;;;105611;1303;25226;-29
2022/07/30 06:36:13;;;;;;;2.60;1.30;;;;;;;;;;105659;1303;22509;-25
2022/07/30 06:38:42;;;;;;;5.00;1.70;;;;;;;;;;105605;1295;22691;-29
2022/07/30 06:41:11;;;;;;;1.60;1.20;;;;;;;;;;104860;1299;1003868;-29
2022/07/30 06:43:40;;;;;;;2.90;1.60;;;;;;;;;;105594;1299;22619;-29
2022/07/30 06:46:09;;;;;;;3.00;1.70;;;;;;;;;;105550;1303;22543;-25
2022/07/30 06:48:38;;;;;;;2.30;1.50;;;;;;;;;;105603;1297;25280;-29
2022/07/30 06:51:07;;;;;;;2.80;1.40;;;;;;;;;;105623;1303;24067;-28
2022/07/30 06:53:36;;;;;;;3.20;1.50;;;;;;;;;;105571;1296;22525;-26
2022/07/30 06:56:04;;;;;;;1.50;1.10;;;;;;;;;;105605;1303;25277;-26
2022/07/30 06:58:33;;;;;;;3.60;1.40;;;;;;;;;;105610;1296;22538;-30
2022/07/30 07:01:02;;;;;;;5.60;1.60;;;;;;;;;;105638;1303;24391;-31
2022/07/30 07:03:31;;;;;;;2.90;1.30;;;;;;;;;;105580;1296;25264;-25
2022/07/30 07:06:00;;;;;;;1.80;1.60;;;;;;;;;;105576;1303;22548;-29
2022/07/30 07:08:30;;;;;;;4.90;2.10;;;;;;;;;;105608;1296;22552;-25
2022/07/30 07:10:59;;;;;;;3.00;1.90;;;;;;;;;;105582;1296;22522;-25
2022/07/30 07:13:28;;;;;;;4.70;2.10;;;;;;;;;;105534;1296;25253;-29
2022/07/30 07:15:57;;;;;;;2.00;1.60;;;;;;;;;;105572;1303;24825;-25
2022/07/30 07:18:26;;;;;;;10.20;1.90;;;;;;;;;;105627;1303;25197;-25
2022/07/30 07:20:54;;;;;;;2.20;1.80;;;;;;;;;;105558;1303;25237;-25
2022/07/30 07:23:23;;;;;;;9.40;2.20;;;;;;;;;;105665;1296;25193;-26
2022/07/30 07:25:52;;;;;;;2.70;1.10;;;;;;;;;;105577;1303;25229;-30
2022/07/30 07:28:21;;;;;;;3.10;1.90;;;;;;;;;;105608;1295;22527;-26
2022/07/30 07:30:50;;;;;;;2.90;1.70;;;;;;;;;;105635;1303;25246;-29
2022/07/30 07:33:18;;;;;;;4.50;1.70;;;;;;;;;;105622;1296;22513;-31
2022/07/30 07:35:48;;;;;;;2.60;1.60;;;;;;;;;;105618;1303;25197;-29
2022/07/30 07:38:17;;;;;;;7.70;2.60;;;;;;;;;;105613;1303;25229;-25
2022/07/30 07:40:46;;;;;;;4.30;1.70;;;;;;;;;;105607;1303;22520;-25
2022/07/30 07:43:15;;;;;;;2.70;2.30;;;;;;;;;;105608;1296;22526;-25
2022/07/30 07:45:44;;;;;;;3.30;2.10;;;;;;;;;;105578;1295;25199;-25
2022/07/30 07:48:13;;;;;;;6.50;1.50;;;;;;;;;;105712;1295;25235;-25
2022/07/30 07:50:42;;;;;;;2.50;1.80;;;;;;;;;;105582;1303;25235;-28
2022/07/30 07:53:11;;;;;;;6.00;1.90;;;;;;;;;;105594;1295;25232;-25
2022/07/30 07:55:40;;;;;;;1.70;1.50;;;;;;;;;;105535;1303;25369;-27
2022/07/30 07:58:12;;;;;;;3.00;2.00;;;;;;;;;;105596;1295;22988;-25
2022/07/30 08:00:41;;;;;;;15.20;1.90;;;;;;;;;;105605;1296;24679;-28
2022/07/30 08:03:10;;;;;;;4.30;1.80;;;;;;;;;;105614;1296;22510;-31
2022/07/30 08:05:38;;;;;;;4.70;1.60;;;;;;;;;;105434;1299;25254;-27
2022/07/30 08:08:07;;;;;;;5.20;4.00;;;;;;;;;;105591;1303;25222;-27
2022/07/30 08:10:36;;;;;;;4.30;3.40;;;;;;;;;;105572;1303;25225;-31
2022/07/30 08:13:05;;;;;;;3.50;2.30;;;;;;;;;;105610;1303;25385;-30
2022/07/30 08:15:34;;;;;;;3.70;2.10;;;;;;;;;;105616;1296;25231;-29
2022/07/30 08:18:03;;;;;;;4.90;2.50;;;;;;;;;;105565;1296;25184;-27
2022/07/30 08:20:32;;;;;;;6.30;1.60;;;;;;;;;;105598;1296;24826;-27
2022/07/30 08:23:01;;;;;;;10.40;1.70;;;;;;;;;;105577;1295;25247;-27
2022/07/30 08:25:29;;;;;;;8.80;2.20;;;;;;;;;;105597;1303;25101;-30
2022/07/30 08:28:01;;;;;;;8.90;1.30;;;;;;;;;;105531;1296;22532;-24
2022/07/30 08:30:30;;;;;;;4.40;2.40;;;;;;;;;;105526;1296;22589;-31
2022/07/30 08:32:59;;;;;;;7.20;2.30;;;;;;;;;;105565;1295;22604;-25
2022/07/30 08:35:28;;;;;;;5.90;2.40;;;;;;;;;;105601;1303;26594;-28
2022/07/30 08:37:57;;;;;;;4.20;2.60;;;;;;;;;;105576;1296;22528;-31
2022/07/30 08:40:26;;;;;;;2.90;2.50;;;;;;;;;;105635;1303;25251;-24
2022/07/30 08:42:54;;;;;;;3.30;1.80;;;;;;;;;;105620;1296;24611;-24
2022/07/30 08:45:23;;;;;;;2.50;1.80;;;;;;;;;;105117;1304;25226;-25
2022/07/30 08:48:01;;;;;;;2.40;1.70;;;;;;;;;;105519;1295;24996;-30
2022/07/30 08:50:38;;;;;;;2.80;2.00;;;;;;;;;;105580;1303;25193;-29
2022/07/30 08:53:16;;;;;;;5.60;2.60;;;;;;;;;;105587;1303;25248;-25
2022/07/30 08:55:45;;;;;;;2.60;1.60;;;;;;;;;;105199;1295;22526;-28
2022/07/30 08:58:21;;;;;;;6.20;2.30;;;;;;;;;;105612;1298;25196;-27
2022/07/30 09:00:50;;;;;;;2.80;1.90;;;;;;;;;;105612;1303;25242;-28
2022/07/30 09:03:19;;;;;;;2.70;1.80;;;;;;;;;;105644;1296;24655;-29
2022/07/30 09:05:48;;;;;;;3.90;2.20;;;;;;;;;;105533;1303;22978;-29
2022/07/30 09:08:16;;;;;;;5.50;2.10;;;;;;;;;;105540;1296;25238;-25
2022/07/30 09:10:46;;;;;;;6.40;2.00;;;;;;;;;;105597;1296;22513;-24
2022/07/30 09:13:18;;;;;;;2.30;1.60;;;;;;;;;;105536;1298;22520;-27
2022/07/30 09:15:47;;;;;;;2.00;1.70;;;;;;;;;;105588;1295;25197;-31
2022/07/30 09:18:24;;;;;;;2.70;2.10;;;;;;;;;;105626;1296;25291;-29
2022/07/30 09:21:05;;;;;;;2.70;1.80;;;;;;;;;;105560;1303;25246;-29
2022/07/30 09:23:34;;;;;;;2.80;2.00;;;;;;;;;;105566;1296;24229;-24
2022/07/30 09:26:03;;;;;;;3.30;2.60;;;;;;;;;;105400;1303;25305;-27
2022/07/30 09:28:32;;;;;;;4.70;2.80;;;;;;;;;;105625;1299;22513;-31
2022/07/30 09:31:01;;;;;;;3.00;2.10;;;;;;;;;;105607;1303;25343;-26
2022/07/30 09:33:33;;;;;;;2.60;1.40;;;;;;;;;;105583;1296;25394;-29
2022/07/30 09:36:06;;;;;;;2.40;1.90;;;;;;;;;;105587;1296;25264;-25
2022/07/30 09:38:38;;;;;;;2.10;1.90;;;;;;;;;;105602;1296;24918;-29
2022/07/30 09:41:07;;;;;;;6.70;2.50;;;;;;;;;;105632;1289;25196;-29
2022/07/30 09:43:39;;;;;;;2.40;2.00;;;;;;;;;;105558;1296;22514;-25
2022/07/30 09:46:08;;;;;;;2.40;2.10;;;;;;;;;;105615;1296;22501;-24
2022/07/30 09:48:37;;;;;;;6.70;6.10;;;;;;;;;;105645;1296;24474;-29
2022/07/30 09:51:06;;;;;;;3.40;2.60;;;;;;;;;;105445;1304;25206;-25
2022/07/30 09:53:34;;;;;;;5.30;2.20;;;;;;;;;;105608;1296;22513;-29
2022/07/30 09:56:22;;;;;;;2.70;2.10;;;;;;;;;;105599;1296;25339;-29
2022/07/30 09:58:51;;;;;;;4.10;2.40;;;;;;;;;;105571;1298;25278;-29
2022/07/30 10:01:20;;;;;;;1.10;1.00;;;;;;;;;;105599;1303;25184;-25
2022/07/30 10:03:49;;;;;;;3.80;2.20;;;;;;;;;;105549;1296;25259;-28
2022/07/30 10:06:18;;;;;;;4.90;2.00;;;;;;;;;;105580;1296;25232;-25
2022/07/30 10:08:49;;;;;;;2.60;1.80;;;;;;;;;;105588;1299;25197;-29
2022/07/30 10:11:21;;;;;;;3.50;2.10;;;;;;;;;;105624;1299;22498;-29
2022/07/30 10:13:53;;;;;;;2.60;1.80;;;;;;;;;;105549;1296;22516;-30
2022/07/30 10:16:26;;;;;;;3.20;2.40;;;;;;;;;;105587;1296;22530;-24
2022/07/30 10:18:56;;;;;;;5.40;2.30;;;;;;;;;;105617;1295;22531;-25
2022/07/30 10:21:25;;;;;;;1.90;1.80;;;;;;;;;;105564;1298;22506;-27
2022/07/30 10:23:54;;;;;;;2.00;1.70;;;;;;;;;;105581;1296;25295;-29
2022/07/30 10:26:23;;;;;;;8.20;1.40;;;;;;;;;;105592;1303;25312;-28
2022/07/30 10:28:51;;;;;;;4.60;1.90;;;;;;;;;;105630;1296;24215;-24
2022/07/30 10:31:20;;;;;;;3.00;1.60;;;;;;;;;;105554;1296;25196;-25
2022/07/30 10:33:49;;;;;;;3.60;1.70;;;;;;;;;;105630;1299;25228;-24
2022/07/30 10:36:18;;;;;;;12.00;2.60;;;;;;;;;;105618;1303;25234;-24
2022/07/30 10:38:47;;;;;;;3.30;2.50;;;;;;;;;;105567;1303;22453;-28
2022/07/30 10:41:23;;;;;;;4.20;1.90;;;;;;;;;;105527;1296;22516;-29
2022/07/30 10:43:53;;;;;;;4.20;2.80;;;;;;;;;;105607;1303;25321;-25
2022/07/30 10:46:26;;;;;;;3.90;2.10;;;;;;;;;;105591;1299;22517;-29
2022/07/30 10:49:06;;;;;;;1.80;1.60;;;;;;;;;;105602;1289;25286;-29
2022/07/30 10:51:38;;;;;;;3.60;1.90;;;;;;;;;;105432;1298;25448;-29
2022/07/30 10:54:19;;;;;;;5.20;1.90;;;;;;;;;;105599;1303;22536;-25
2022/07/30 10:57:01;;;;;;;4.10;2.30;;;;;;;;;;105621;1296;25238;-31
2022/07/30 10:59:34;;;;;;;3.10;1.80;;;;;;;;;;105374;1299;25372;-31
2022/07/30 11:02:06;;;;;;;7.10;1.90;;;;;;;;;;105678;1296;25177;-29
2022/07/30 11:04:35;;;;;;;3.60;2.30;;;;;;;;;;105583;1296;25238;-25
2022/07/30 11:07:07;;;;;;;4.40;2.60;;;;;;;;;;105563;1303;25197;-29
2022/07/30 11:09:36;;;;;;;7.30;2.30;;;;;;;;;;105629;1295;25312;-31
2022/07/30 11:12:06;;;;;;;3.40;3.10;;;;;;;;;;104882;1303;1003015;-25
2022/07/30 11:14:38;;;;;;;4.90;3.10;;;;;;;;;;105616;1296;23888;-29
2022/07/30 11:17:07;;;;;;;3.10;2.70;;;;;;;;;;104824;1303;1002637;-25
2022/07/30 11:19:48;;;;;;;8.70;3.30;;;;;;;;;;105602;1298;25289;-29
2022/07/30 11:22:20;;;;;;;3.40;3.00;;;;;;;;;;104771;1298;1003363;-27
2022/07/30 11:24:49;;;;;;;3.10;2.50;;;;;;;;;;105603;1296;22526;-29
2022/07/30 11:27:21;;;;;;;6.70;3.80;;;;;;;;;;105561;1303;22523;-29
2022/07/30 11:29:50;;;;;;;3.00;2.70;;;;;;;;;;105640;1303;22521;-24
2022/07/30 11:32:23;;;;;;;3.90;3.00;;;;;;;;;;105579;1303;25242;-25
2022/07/30 11:34:52;;;;;;;10.40;3.20;;;;;;;;;;105650;1296;22504;-31
2022/07/30 11:37:21;;;;;;;4.10;2.90;;;;;;;;;;105542;1298;25095;-28
2022/07/30 11:39:54;;;;;;;7.70;5.10;;;;;;;;;;105558;1295;22528;-30
2022/07/30 11:42:26;;;;;;;4.80;4.10;;;;;;;;;;105602;1298;25391;-25
2022/07/30 11:44:58;;;;;;;7.20;6.30;;;;;;;;;;105607;1295;25298;-25
2022/07/30 11:47:27;;;;;;;5.40;3.20;;;;;;;;;;105634;1296;22460;-25
2022/07/30 11:49:56;;;;;;;5.50;3.90;;;;;;;;;;105564;1296;22523;-24
2022/07/30 11:52:25;;;;;;;4.60;3.50;;;;;;;;;;105574;1303;24678;-25
2022/07/30 11:54:54;;;;;;;5.80;2.90;;;;;;;;;;105575;1295;22615;-25
2022/07/30 11:57:26;;;;;;;5.60;4.10;;;;;;;;;;105541;1303;22555;-26
2022/07/30 11:59:55;;;;;;;5.60;4.40;;;;;;;;;;105607;1296;22517;-24
2022/07/30 12:02:26;;;;;;;5.50;4.80;;;;;;;;;;105638;1303;24463;-25
2022/07/30 12:04:55;;;;;;;5.50;5.00;;;;;;;;;;105581;1298;25251;-29
2022/07/30 12:07:24;;;;;;;5.10;3.90;;;;;;;;;;105552;1303;22509;-31
2022/07/30 12:09:53;;;;;;;5.80;3.50;;;;;;;;;;105584;1298;25360;-31
2022/07/30 12:12:23;;;;;;;7.10;4.40;;;;;;;;;;105471;1303;25261;-29
2022/07/30 12:14:51;;;;;;;7.80;3.80;;;;;;;;;;105557;1298;25238;-24
2022/07/30 12:17:20;;;;;;;3.90;3.50;;;;;;;;;;105578;1303;22557;-24
2022/07/30 12:19:50;;;;;;;10.00;3.00;;;;;;;;;;105629;1295;22539;-24
2022/07/30 12:22:19;;;;;;;6.50;5.80;;;;;;;;;;105556;1303;23214;-25
2022/07/30 12:24:48;;;;;;;7.40;4.80;;;;;;;;;;105608;1303;25074;-25
2022/07/30 12:27:17;;;;;;;4.10;3.70;;;;;;;;;;105560;1303;25395;-25
2022/07/30 12:29:46;;;;;;;7.20;5.00;;;;;;;;;;105574;1303;25372;-29
2022/07/30 12:32:15;;;;;;;9.60;5.10;;;;;;;;;;105592;1303;25187;-29
2022/07/30 12:34:52;;;;;;;8.20;4.60;;;;;;;;;;105544;1296;22525;-30
2022/07/30 12:37:20;;;;;;;4.40;3.30;;;;;;;;;;105619;1303;25200;-29
2022/07/30 12:40:03;;;;;;;5.30;4.10;;;;;;;;;;105412;1299;22516;-27
2022/07/30 12:42:32;;;;;;;4.80;3.60;;;;;;;;;;105583;1296;22536;-30
2022/07/30 12:45:01;;;;;;;5.40;4.80;;;;;;;;;;105662;1295;22516;-25
2022/07/30 12:47:30;;;;;;;5.30;4.80;;;;;;;;;;105592;1303;22572;-30
2022/07/30 12:49:59;;;;;;;6.30;5.40;;;;;;;;;;105588;1296;24565;-23
2022/07/30 12:52:29;;;;;;;8.90;4.90;;;;;;;;;;105581;1303;25095;-25
2022/07/30 12:54:59;;;;;;;7.70;4.80;;;;;;;;;;105575;1298;22510;-30
2022/07/30 12:57:32;;;;;;;6.80;6.10;;;;;;;;;;105577;1299;25332;-32
2022/07/30 13:00:02;;;;;;;5.60;4.60;;;;;;;;;;105625;1303;25181;-32
2022/07/30 13:02:32;;;;;;;8.20;7.10;;;;;;;;;;105572;1302;22503;-27
2022/07/30 13:05:01;;;;;;;6.20;5.40;;;;;;;;;;105648;1303;22529;-24
2022/07/30 13:07:31;;;;;;;10.20;7.00;;;;;;;;;;105610;1299;25296;-24
2022/07/30 13:10:03;;;;;;;7.50;6.80;;;;;;;;;;105537;1296;25256;-24
2022/07/30 13:12:32;;;;;;;10.20;5.40;;;;;;;;;;105536;1299;25213;-30
2022/07/30 13:15:01;;;;;;;9.50;5.30;;;;;;;;;;105622;1299;25216;-31
2022/07/30 13:17:30;;;;;;;7.60;5.30;;;;;;;;;;105579;1303;22523;-26
2022/07/30 13:19:59;;;;;;;5.90;5.20;;;;;;;;;;105619;1296;22536;-29
2022/07/30 13:22:28;;;;;;;11.40;7.10;;;;;;;;;;105581;1303;22553;-32
2022/07/30 13:24:57;;;;;;;6.00;4.10;;;;;;;;;;105568;1295;22532;-24
2022/07/30 13:27:26;;;;;;;15.20;6.50;;;;;;;;;;105581;1303;22605;-24
2022/07/30 13:29:55;;;;;;;6.10;5.50;;;;;;;;;;105537;1296;22521;-25
2022/07/30 13:32:23;;;;;;;8.80;6.60;;;;;;;;;;105543;1303;22609;-26
2022/07/30 13:34:52;;;;;;;11.60;6.90;;;;;;;;;;105571;1296;22549;-24
2022/07/30 13:37:21;;;;;;;5.90;5.30;;;;;;;;;;105550;1303;25347;-30
2022/07/30 13:39:50;;;;;;;5.80;5.30;;;;;;;;;;105562;1296;22521;-30
2022/07/30 13:42:19;;;;;;;13.80;6.00;;;;;;;;;;105606;1303;24829;-25
2022/07/30 13:44:48;;;;;;;6.20;5.70;;;;;;;;;;105566;1303;24909;-24
2022/07/30 13:47:17;;;;;;;7.60;6.80;;;;;;;;;;105631;1303;25347;-32
2022/07/30 13:49:48;;;;;;;8.50;7.50;;;;;;;;;;105666;1303;25197;-32
2022/07/30 13:52:17;;;;;;;12.70;9.90;;;;;;;;;;105157;1296;448168;-27
2022/07/30 13:54:47;;;;;;;19.60;10.50;;;;;;;;;;105583;1298;22551;-27
2022/07/30 13:57:15;;;;;;;29.70;15.40;;;;;;;;;;105588;1303;25296;-29
2022/07/30 13:59:45;;;;;;;22.10;15.20;;;;;;;;;;105620;1299;25349;-30
2022/07/30 14:02:14;;;;;;;13.80;10.10;;;;;;;;;;105636;1303;24737;-30
2022/07/30 14:04:42;;;;;;;6.50;6.00;;;;;;;;;;105567;1299;22653;-30
2022/07/30 14:07:12;;;;;;;25.80;13.10;;;;;;;;;;105561;1299;22462;-30
2022/07/30 14:09:41;;;;;;;24.40;12.30;;;;;;;;;;105540;1299;22549;-26
2022/07/30 14:12:10;;;;;;;21.20;10.20;;;;;;;;;;105426;1303;25196;-30
2022/07/30 14:14:39;;;;;;;10.90;7.50;;;;;;;;;;105623;1296;24667;-30
2022/07/30 14:17:07;;;;;;;6.20;5.70;;;;;;;;;;105551;1303;25282;-24
2022/07/30 14:19:36;;;;;;;8.70;7.30;;;;;;;;;;105616;1299;25277;-28
2022/07/30 14:22:05;;;;;;;7.90;6.70;;;;;;;;;;105610;1303;22555;-27
2022/07/30 14:24:34;;;;;;;10.70;6.60;;;;;;;;;;105620;1303;22615;-26
2022/07/30 14:27:03;;;;;;;7.70;7.00;;;;;;;;;;105617;1303;25258;-25
2022/07/30 14:29:32;;;;;;;5.80;4.60;;;;;;;;;;105622;1299;22620;-26
2022/07/30 14:32:01;;;;;;;7.50;6.40;;;;;;;;;;105648;1303;25216;-30
2022/07/30 14:34:29;;;;;;;6.10;5.50;;;;;;;;;;105622;1299;22632;-25
2022/07/30 14:36:58;;;;;;;6.80;5.60;;;;;;;;;;105543;1298;25341;-30
2022/07/30 14:39:27;;;;;;;6.50;5.70;;;;;;;;;;105514;1303;25238;-26
2022/07/30 14:41:56;;;;;;;7.50;6.20;;;;;;;;;;105560;1303;22620;-30
2022/07/30 14:44:25;;;;;;;6.10;5.30;;;;;;;;;;105549;1296;22615;-30